Time,TemperatureF,DewpointF,PressureIn,WindDirection,WindDirectionDegrees,WindSpeedMPH,WindSpeedGustMPH,Humidity,HourlyPrecipIn,Conditions,Clouds,dailyrainin,SolarRadiationWatts/m^2,SoftwareType,DateUTC
2013-08-20 00:01:00,62.0,27.0,-100.00,WSW,251,2.0,9.0,26,0.00,,,0.00,0.000000,,2013-08-20 06:01:00,
2013-08-20 00:11:00,62.0,27.0,-100.00,WSW,251,2.0,9.0,26,0.00,,,0.00,0.000000,,2013-08-20 06:11:00,
2013-08-20 01:42:00,54.0,26.0,-100.00,NW,312,1.0,5.0,33,-99.99,,,0.00,0.000000,,2013-08-20 07:42:00,
2013-08-20 01:52:00,54.0,26.0,-100.00,NW,312,1.0,5.0,33,-99.99,,,0.00,0.000000,,2013-08-20 07:52:00,
2013-08-20 02:02:00,54.0,26.0,-100.00,NW,312,1.0,5.0,33,-99.99,,,0.00,0.000000,,2013-08-20 08:02:00,
2013-08-20 02:11:00,54.0,26.0,-100.00,NW,312,1.0,5.0,33,-99.99,,,0.00,0.000000,,2013-08-20 08:11:00,
2013-08-20 02:42:00,51.0,29.0,-100.00,North,0,2.0,4.0,42,0.00,,,0.00,0.000000,,2013-08-20 08:42:00,
2013-08-20 02:52:00,51.0,29.0,-100.00,North,0,2.0,4.0,42,0.00,,,0.00,0.000000,,2013-08-20 08:52:00,
2013-08-20 03:01:00,51.0,29.0,-100.00,North,0,2.0,4.0,42,0.00,,,0.00,0.000000,,2013-08-20 09:01:00,
2013-08-20 04:12:00,48.0,28.0,-100.00,NE,46,1.0,4.0,46,0.00,,,0.00,0.000000,,2013-08-20 10:12:00,
2013-08-20 04:43:00,47.0,29.0,-100.00,NNE,21,3.0,6.0,50,0.00,,,-99.99,0.000000,,2013-08-20 10:43:00,
2013-08-20 04:52:00,47.0,29.0,-100.00,NNE,21,3.0,6.0,50,0.00,,,-99.99,0.000000,,2013-08-20 10:52:00,
2013-08-20 05:02:00,47.0,29.0,-100.00,NNE,21,3.0,6.0,50,0.00,,,-99.99,0.000000,,2013-08-20 11:02:00,
2013-08-20 05:11:00,47.0,29.0,-100.00,NNE,21,3.0,6.0,50,0.00,,,-99.99,0.000000,,2013-08-20 11:11:00,
2013-08-20 05:42:00,45.0,28.0,-100.00,North,357,2.0,6.0,51,0.00,,,0.00,0.000000,,2013-08-20 11:42:00,
2013-08-20 05:52:00,45.0,28.0,-100.00,North,357,2.0,6.0,51,0.00,,,0.00,0.000000,,2013-08-20 11:52:00,
2013-08-20 06:01:00,45.0,28.0,-100.00,North,357,2.0,6.0,51,0.00,,,0.00,0.000000,,2013-08-20 12:01:00,
2013-08-20 06:12:00,45.0,28.0,-100.00,North,357,2.0,6.0,51,0.00,,,0.00,0.000000,,2013-08-20 12:12:00,
2013-08-20 06:42:00,47.0,32.0,-100.00,SE,135,2.0,5.0,56,0.00,,,0.00,0.000000,,2013-08-20 12:42:00,
2013-08-20 06:52:00,47.0,32.0,-100.00,SE,135,2.0,5.0,56,0.00,,,0.00,0.000000,,2013-08-20 12:52:00,
2013-08-20 07:01:00,47.0,32.0,-100.00,SE,135,2.0,5.0,56,0.00,,,0.00,0.000000,,2013-08-20 13:01:00,
2013-08-20 07:11:00,47.0,32.0,-100.00,SE,135,2.0,5.0,56,0.00,,,0.00,0.000000,,2013-08-20 13:11:00,
2013-08-20 07:42:00,44.0,31.0,-100.00,SSE,165,2.0,5.0,59,0.00,,,0.00,6.000000,,2013-08-20 13:42:00,
2013-08-20 07:52:00,44.0,31.0,-100.00,SSE,165,2.0,5.0,59,0.00,,,0.00,6.000000,,2013-08-20 13:52:00,
2013-08-20 08:02:00,44.0,31.0,-100.00,SSE,165,2.0,5.0,59,0.00,,,0.00,6.000000,,2013-08-20 14:02:00,
2013-08-20 08:11:00,44.0,31.0,-100.00,SSE,165,2.0,5.0,59,0.00,,,0.00,6.000000,,2013-08-20 14:11:00,
2013-08-20 08:42:00,52.0,40.0,-100.00,SSE,159,3.0,5.0,63,0.00,,,0.00,99.000000,,2013-08-20 14:42:00,
2013-08-20 08:52:00,52.0,40.0,-100.00,SSE,159,3.0,5.0,63,0.00,,,0.00,99.000000,,2013-08-20 14:52:00,
2013-08-20 09:02:00,52.0,40.0,-100.00,SSE,159,3.0,5.0,63,0.00,,,0.00,99.000000,,2013-08-20 15:02:00,
2013-08-20 09:11:00,52.0,40.0,-100.00,SSE,159,3.0,5.0,63,0.00,,,0.00,99.000000,,2013-08-20 15:11:00,
2013-08-20 09:15:00,62.0,41.0,-100.00,WNW,288,1.0,3.0,46,0.00,,,0.00,376.000000,,2013-08-20 15:15:00,
2013-08-20 09:43:00,62.0,41.0,-100.00,WNW,288,1.0,3.0,46,0.00,,,0.00,376.000000,,2013-08-20 15:43:00,
2013-08-20 09:53:00,62.0,41.0,-100.00,WNW,288,1.0,3.0,46,0.00,,,0.00,376.000000,,2013-08-20 15:53:00,
2013-08-20 10:04:00,62.0,41.0,-100.00,WNW,288,1.0,3.0,46,0.00,,,0.00,376.000000,,2013-08-20 16:04:00,
2013-08-20 10:42:00,69.0,42.0,-100.00,North,351,3.0,5.0,38,0.00,,,0.00,581.000000,,2013-08-20 16:42:00,
2013-08-20 10:53:00,69.0,42.0,-100.00,North,351,3.0,5.0,38,0.00,,,0.00,581.000000,,2013-08-20 16:53:00,
2013-08-20 11:03:00,69.0,42.0,-100.00,North,351,3.0,5.0,38,0.00,,,0.00,581.000000,,2013-08-20 17:03:00,
2013-08-20 11:12:00,69.0,42.0,-100.00,North,351,3.0,5.0,38,0.00,,,0.00,581.000000,,2013-08-20 17:12:00,
2013-08-20 11:43:00,76.0,40.0,-100.00,NNW,332,2.0,7.0,27,0.00,,,0.00,761.000000,,2013-08-20 17:43:00,
2013-08-20 11:52:00,76.0,40.0,-100.00,NNW,332,2.0,7.0,27,0.00,,,0.00,761.000000,,2013-08-20 17:52:00,
2013-08-20 12:02:00,76.0,40.0,-100.00,NNW,332,2.0,7.0,27,0.00,,,0.00,761.000000,,2013-08-20 18:02:00,
2013-08-20 12:12:00,76.0,40.0,-100.00,NNW,332,2.0,7.0,27,0.00,,,0.00,761.000000,,2013-08-20 18:12:00,
2013-08-20 12:43:00,77.0,38.0,-100.00,SW,214,5.0,11.0,25,0.00,,,0.00,897.000000,,2013-08-20 18:43:00,
2013-08-20 12:52:00,77.0,38.0,-100.00,SW,214,5.0,11.0,25,0.00,,,0.00,897.000000,,2013-08-20 18:52:00,
2013-08-20 13:01:00,77.0,38.0,-100.00,SW,214,5.0,11.0,25,0.00,,,0.00,897.000000,,2013-08-20 19:01:00,
2013-08-20 13:11:00,77.0,38.0,-100.00,SW,214,5.0,11.0,25,0.00,,,0.00,897.000000,,2013-08-20 19:11:00,
2013-08-20 13:42:00,80.0,38.0,-100.00,WSW,254,8.0,16.0,22,0.00,,,0.00,978.000000,,2013-08-20 19:42:00,
2013-08-20 13:52:00,80.0,38.0,-100.00,WSW,254,8.0,16.0,22,0.00,,,0.00,978.000000,,2013-08-20 19:52:00,
2013-08-20 14:03:00,80.0,38.0,-100.00,WSW,254,8.0,16.0,22,0.00,,,0.00,978.000000,,2013-08-20 20:03:00,
2013-08-20 14:11:00,80.0,38.0,-100.00,WSW,254,8.0,16.0,22,0.00,,,0.00,978.000000,,2013-08-20 20:11:00,
2013-08-20 14:42:00,83.0,36.0,-100.00,SW,215,11.0,18.0,19,0.00,,,0.00,999.000000,,2013-08-20 20:42:00,
2013-08-20 14:52:00,83.0,36.0,-100.00,SW,215,11.0,18.0,19,0.00,,,0.00,999.000000,,2013-08-20 20:52:00,
2013-08-20 15:02:00,83.0,36.0,-100.00,SW,215,11.0,18.0,19,0.00,,,0.00,999.000000,,2013-08-20 21:02:00,
2013-08-20 15:11:00,83.0,36.0,-100.00,SW,215,11.0,18.0,19,0.00,,,0.00,999.000000,,2013-08-20 21:11:00,
2013-08-20 16:14:00,84.0,36.0,-100.00,SW,221,12.0,19.0,18,0.00,,,0.00,947.000000,,2013-08-20 22:14:00,
2013-08-20 16:42:00,85.0,35.0,-100.00,WSW,243,12.0,26.0,17,0.00,,,0.00,653.000000,,2013-08-20 22:42:00,
2013-08-20 16:53:00,85.0,35.0,-100.00,WSW,243,12.0,26.0,17,0.00,,,0.00,653.000000,,2013-08-20 22:53:00,
2013-08-20 17:03:00,85.0,35.0,-100.00,WSW,243,12.0,26.0,17,0.00,,,0.00,653.000000,,2013-08-20 23:03:00,
2013-08-20 17:12:00,85.0,35.0,-100.00,WSW,243,12.0,26.0,17,0.00,,,0.00,653.000000,,2013-08-20 23:12:00,
2013-08-20 17:43:00,84.0,34.0,-100.00,West,261,11.0,19.0,17,0.00,,,0.00,698.000000,,2013-08-20 23:43:00,
2013-08-20 17:53:00,84.0,34.0,-100.00,West,261,11.0,19.0,17,0.00,,,0.00,698.000000,,2013-08-20 23:53:00,
2013-08-20 18:02:00,84.0,34.0,-100.00,West,261,11.0,19.0,17,0.00,,,0.00,698.000000,,2013-08-21 00:02:00,
2013-08-20 18:12:00,84.0,34.0,-100.00,West,261,11.0,19.0,17,0.00,,,0.00,698.000000,,2013-08-21 00:12:00,
2013-08-20 18:42:00,83.0,34.0,-100.00,West,278,11.0,18.0,17,0.00,,,0.00,506.000000,,2013-08-21 00:42:00,
2013-08-20 18:52:00,83.0,34.0,-100.00,West,278,11.0,18.0,17,0.00,,,0.00,506.000000,,2013-08-21 00:52:00,
2013-08-20 19:02:00,83.0,34.0,-100.00,West,278,11.0,18.0,17,0.00,,,0.00,506.000000,,2013-08-21 01:02:00,
2013-08-20 19:11:00,83.0,34.0,-100.00,West,278,11.0,18.0,17,0.00,,,0.00,506.000000,,2013-08-21 01:11:00,
2013-08-20 19:42:00,80.0,33.0,-100.00,West,267,8.0,16.0,18,0.00,,,0.00,301.000000,,2013-08-21 01:42:00,
2013-08-20 19:52:00,80.0,33.0,-100.00,West,267,8.0,16.0,18,0.00,,,0.00,301.000000,,2013-08-21 01:52:00,
2013-08-20 20:02:00,80.0,33.0,-100.00,West,267,8.0,16.0,18,0.00,,,0.00,301.000000,,2013-08-21 02:02:00,
2013-08-20 20:12:00,80.0,33.0,-100.00,West,267,8.0,16.0,18,0.00,,,0.00,301.000000,,2013-08-21 02:12:00,
2013-08-20 20:42:00,75.0,35.0,-100.00,North,354,1.0,15.0,23,0.00,,,0.00,51.000000,,2013-08-21 02:42:00,
2013-08-20 20:52:00,75.0,35.0,-100.00,North,354,1.0,15.0,23,0.00,,,0.00,51.000000,,2013-08-21 02:52:00,
2013-08-20 21:02:00,75.0,35.0,-100.00,North,354,1.0,15.0,23,0.00,,,0.00,51.000000,,2013-08-21 03:02:00,
2013-08-20 21:12:00,75.0,35.0,-100.00,North,354,1.0,15.0,23,0.00,,,0.00,51.000000,,2013-08-21 03:12:00,
2013-08-20 21:44:00,67.0,35.0,-100.00,ESE,117,2.0,6.0,30,0.00,,,0.00,4.000000,,2013-08-21 03:44:00,
2013-08-20 21:55:00,67.0,35.0,-100.00,ESE,117,2.0,6.0,30,0.00,,,0.00,4.000000,,2013-08-21 03:55:00,
2013-08-20 22:04:00,67.0,35.0,-100.00,ESE,117,2.0,6.0,30,0.00,,,0.00,4.000000,,2013-08-21 04:04:00,
2013-08-20 22:13:00,67.0,35.0,-100.00,ESE,117,2.0,6.0,30,0.00,,,0.00,4.000000,,2013-08-21 04:13:00,
2013-08-20 22:44:00,64.0,36.0,-100.00,ESE,106,7.0,9.0,35,0.00,,,0.00,0.000000,,2013-08-21 04:44:00,
2013-08-20 22:54:00,64.0,36.0,-100.00,ESE,106,7.0,9.0,35,0.00,,,0.00,0.000000,,2013-08-21 04:54:00,
2013-08-20 23:02:00,64.0,36.0,-100.00,ESE,106,7.0,9.0,35,0.00,,,0.00,0.000000,,2013-08-21 05:02:00,
2013-08-20 23:12:00,64.0,36.0,-100.00,ESE,106,7.0,9.0,35,0.00,,,0.00,0.000000,,2013-08-21 05:12:00,
2013-08-20 23:43:00,59.0,35.0,-100.00,ESE,108,6.0,8.0,40,0.00,,,0.00,0.000000,,2013-08-21 05:43:00,
2013-08-20 23:52:00,59.0,35.0,-100.00,ESE,108,6.0,8.0,40,0.00,,,0.00,0.000000,,2013-08-21 05:52:00,